Time;durP1;ratioP1;P1;durP2;ratioP2;P2;SDS_P1;SDS_P2;PMS_P1;PMS_P2;Temp;Humidity;BMP_temperature;BMP_pressure;BME280_temperature;BME280_humidity;BME280_pressure;Samples;Min_cycle;Max_cycle;Signal;HPM_P1;HPM_P2
2023/02/11 00:00:39;;;;;;;57.97;34.00;;;;;;;5.74;100.00;101908.84;5102369;28;20474;-70
2023/02/11 00:03:07;;;;;;;61.67;34.37;;;;;;;5.73;100.00;101922.16;5063040;28;20475;-69
2023/02/11 00:05:34;;;;;;;61.77;34.80;;;;;;;5.81;100.00;101928.00;5084865;28;20469;-70
2023/02/11 00:08:00;;;;;;;61.97;35.30;;;;;;;5.76;100.00;101909.63;5082219;28;20487;-70
2023/02/11 00:10:27;;;;;;;61.20;34.67;;;;;;;5.78;100.00;101901.59;5082051;28;20500;-69
2023/02/11 00:12:53;;;;;;;61.80;34.03;;;;;;;5.76;100.00;101898.16;5067719;28;20456;-70
2023/02/11 00:15:20;;;;;;;66.83;36.87;;;;;;;5.65;100.00;101891.53;5061597;28;20457;-70
2023/02/11 00:17:47;;;;;;;66.03;37.87;;;;;;;5.76;100.00;101891.03;5062687;28;20441;-69
2023/02/11 00:20:16;;;;;;;62.73;35.23;;;;;;;5.83;100.00;101887.22;5076131;28;20478;-70
2023/02/11 00:22:42;;;;;;;58.50;35.53;;;;;;;5.85;100.00;101892.44;5072904;28;20503;-70
2023/02/11 00:25:09;;;;;;;67.10;38.33;;;;;;;5.83;100.00;101900.47;5064239;28;20459;-70
2023/02/11 00:27:36;;;;;;;65.57;35.70;;;;;;;5.83;100.00;101895.16;5081440;28;20472;-69
2023/02/11 00:30:04;;;;;;;66.43;35.50;;;;;;;5.75;100.00;101902.59;5068662;28;20436;-70
2023/02/11 00:32:30;;;;;;;68.77;36.90;;;;;;;5.77;100.00;101894.59;5069813;28;20484;-69
2023/02/11 00:34:57;;;;;;;66.20;35.30;;;;;;;5.78;100.00;101901.59;5080391;28;20448;-70
2023/02/11 00:37:25;;;;;;;65.77;37.20;;;;;;;5.80;100.00;101905.06;5080979;28;20510;-71
2023/02/11 00:39:52;;;;;;;70.57;35.57;;;;;;;5.79;100.00;101887.41;5080504;28;20510;-71
2023/02/11 00:42:18;;;;;;;60.40;35.77;;;;;;;5.74;100.00;101900.00;5080487;28;20464;-71
2023/02/11 00:44:45;;;;;;;60.67;36.30;;;;;;;5.80;100.00;101895.31;5071897;28;20458;-70
2023/02/11 00:47:12;;;;;;;61.37;37.40;;;;;;;5.94;100.00;101901.78;5069941;28;20515;-70
2023/02/11 00:49:39;;;;;;;62.37;37.73;;;;;;;5.85;100.00;101893.31;5076331;28;20440;-70
2023/02/11 00:52:05;;;;;;;66.07;37.13;;;;;;;5.93;100.00;101910.66;5067565;28;21064;-71
2023/02/11 00:54:34;;;;;;;61.73;34.60;;;;;;;5.76;100.00;101920.22;5072010;28;21001;-70
2023/02/11 00:57:00;;;;;;;66.93;36.33;;;;;;;5.79;100.00;101920.09;5064885;28;20487;-71
2023/02/11 00:59:27;;;;;;;72.40;37.27;;;;;;;5.65;100.00;101910.09;5081195;28;20496;-71
2023/02/11 01:01:54;;;;;;;68.57;38.00;;;;;;;5.77;100.00;101911.34;5063553;28;20523;-71
2023/02/11 01:04:20;;;;;;;69.73;38.20;;;;;;;5.79;100.00;101920.09;5072571;28;20490;-72
2023/02/11 01:06:47;;;;;;;68.07;36.90;;;;;;;5.73;100.00;101917.75;5084092;28;20565;-70
2023/02/11 01:09:14;;;;;;;61.33;35.40;;;;;;;5.72;100.00;101928.41;5081634;28;20436;-71
2023/02/11 01:11:42;;;;;;;67.43;37.13;;;;;;;5.72;100.00;101939.03;5081100;28;20472;-71
2023/02/11 01:14:08;;;;;;;69.40;36.40;;;;;;;5.86;100.00;101952.56;5089876;28;20457;-70
2023/02/11 01:16:35;;;;;;;71.70;38.73;;;;;;;5.77;100.00;101935.25;5100653;28;20498;-71
2023/02/11 01:19:02;;;;;;;69.80;39.07;;;;;;;5.81;100.00;101938.63;5098201;28;20434;-68
2023/02/11 01:21:28;;;;;;;64.43;38.53;;;;;;;5.85;100.00;101935.78;5098913;28;20497;-69
2023/02/11 01:23:55;;;;;;;68.53;38.30;;;;;;;5.58;100.00;101924.56;5100648;28;20465;-69
2023/02/11 01:26:21;;;;;;;69.17;38.60;;;;;;;5.51;100.00;101917.81;5082480;28;20499;-68
2023/02/11 01:28:49;;;;;;;68.37;40.40;;;;;;;5.56;100.00;101921.13;5079950;28;20477;-68
2023/02/11 01:31:16;;;;;;;63.40;36.33;;;;;;;5.50;100.00;101904.63;5080744;28;20537;-68
2023/02/11 01:33:43;;;;;;;66.83;37.23;;;;;;;5.51;100.00;101909.84;5088986;28;20502;-67
2023/02/11 01:36:11;;;;;;;66.60;39.80;;;;;;;5.63;100.00;101895.19;5096209;28;20506;-68
2023/02/11 01:38:39;;;;;;;66.00;39.00;;;;;;;5.51;100.00;101885.13;5090160;28;20444;-68
2023/02/11 01:41:09;;;;;;;73.13;38.47;;;;;;;5.58;100.00;101887.44;5080776;28;20491;-68
2023/02/11 01:43:37;;;;;;;68.07;39.27;;;;;;;5.46;100.00;101887.97;5101239;28;20473;-68
2023/02/11 01:46:28;;;;;;;60.93;35.77;;;;;;;5.58;100.00;101886.56;5089136;28;20475;-70
2023/02/11 01:48:58;;;;;;;73.40;38.27;;;;;;;5.62;100.00;101877.53;5086978;28;20461;-69
2023/02/11 01:51:27;;;;;;;65.60;38.17;;;;;;;5.50;100.00;101881.59;5080382;28;20513;-69
2023/02/11 01:59:30;;;;;;;65.80;37.30;;;;;;;5.62;100.00;101885.50;5092486;28;20477;-69
2023/02/11 02:02:02;;;;;;;70.33;40.40;;;;;;;5.53;100.00;101881.47;5100999;28;20584;-69
2023/02/11 02:04:33;;;;;;;78.83;39.40;;;;;;;5.52;100.00;101877.09;5101412;28;20458;-69
2023/02/11 02:07:03;;;;;;;73.13;38.90;;;;;;;5.55;100.00;101879.59;5098890;28;20486;-69
2023/02/11 02:09:38;;;;;;;69.63;37.33;;;;;;;5.46;100.00;101882.66;5092426;28;21004;-68
2023/02/11 02:12:04;;;;;;;76.73;38.90;;;;;;;5.54;100.00;101883.19;5080631;28;20514;-68
2023/02/11 02:14:31;;;;;;;68.53;39.00;;;;;;;5.61;100.00;101883.78;5081855;28;20506;-68
2023/02/11 02:16:59;;;;;;;75.60;41.30;;;;;;;5.65;100.00;101880.06;5086337;28;20478;-68
2023/02/11 02:19:52;;;;;;;78.70;41.00;;;;;;;5.69;100.00;101881.63;5101715;28;20936;-68
2023/02/11 02:22:49;;;;;;;66.60;39.37;;;;;;;5.58;100.00;101868.00;5095788;28;20531;-68
2023/02/11 02:25:36;;;;;;;67.10;37.57;;;;;;;5.51;100.00;101867.41;5092686;28;20453;-68
2023/02/11 02:28:13;;;;;;;75.63;39.40;;;;;;;5.58;100.00;101860.91;5084270;28;20479;-68
2023/02/11 02:31:00;;;;;;;80.07;40.50;;;;;;;5.60;100.00;101856.38;5080038;28;20496;-68
2023/02/11 02:33:34;;;;;;;77.50;41.80;;;;;;;5.53;100.00;101848.78;5078255;28;20482;-69
2023/02/11 02:36:09;;;;;;;74.07;41.17;;;;;;;5.63;100.00;101840.31;5081589;28;20583;-69
2023/02/11 02:38:40;;;;;;;75.73;40.73;;;;;;;5.55;100.00;101852.22;5081455;28;20463;-68
2023/02/11 02:41:08;;;;;;;74.80;41.10;;;;;;;5.62;100.00;101846.59;5089139;28;20517;-68
2023/02/11 02:43:37;;;;;;;74.93;40.27;;;;;;;5.61;100.00;101852.81;5085754;28;20504;-69
2023/02/11 02:46:11;;;;;;;87.67;42.30;;;;;;;5.56;100.00;101848.66;5087844;28;20550;-68
2023/02/11 02:48:39;;;;;;;72.37;40.57;;;;;;;5.59;100.00;101859.09;5096431;28;20467;-68
2023/02/11 02:51:15;;;;;;;66.17;38.57;;;;;;;5.58;100.00;101854.75;5094777;28;20576;-70
2023/02/11 02:53:54;;;;;;;73.27;41.63;;;;;;;5.71;100.00;101860.34;5074776;28;20434;-70
2023/02/11 02:56:27;;;;;;;67.40;39.80;;;;;;;5.54;100.00;101851.38;5080283;28;20562;-70
2023/02/11 02:59:12;;;;;;;73.40;39.90;;;;;;;5.45;100.00;101846.44;5080209;28;20462;-71
2023/02/11 03:01:43;;;;;;;72.90;38.90;;;;;;;5.65;100.00;101842.91;5074435;28;20484;-70
2023/02/11 03:04:18;;;;;;;68.70;39.13;;;;;;;5.70;100.00;101850.69;5086049;28;21491;-70
2023/02/11 03:06:48;;;;;;;71.13;38.53;;;;;;;5.58;100.00;101846.78;5086884;28;20509;-70
2023/02/11 03:09:21;;;;;;;68.87;39.63;;;;;;;5.50;100.00;101844.44;5101480;28;20438;-70
2023/02/11 03:11:47;;;;;;;68.40;40.53;;;;;;;5.52;100.00;101847.03;5091672;28;21083;-70
2023/02/11 03:14:17;;;;;;;71.10;41.00;;;;;;;5.58;100.00;101852.94;5086114;28;20475;-71
2023/02/11 03:16:45;;;;;;;67.77;37.80;;;;;;;5.41;100.00;101834.25;5087855;28;20482;-71
2023/02/11 03:19:17;;;;;;;78.27;43.87;;;;;;;5.56;100.00;101844.19;5099518;28;20462;-71
2023/02/11 03:21:44;;;;;;;81.07;39.43;;;;;;;5.52;100.00;101839.09;5098207;28;20488;-70
2023/02/11 03:24:14;;;;;;;67.17;38.90;;;;;;;5.39;100.00;101830.81;5095275;28;20485;-70
2023/02/11 03:26:46;;;;;;;78.50;39.00;;;;;;;5.36;100.00;101815.91;5096259;28;20473;-70
2023/02/11 03:29:17;;;;;;;70.43;36.83;;;;;;;5.20;100.00;101815.72;5103174;28;20442;-70
2023/02/11 03:31:51;;;;;;;71.07;39.07;;;;;;;5.31;100.00;101825.00;5103698;28;21089;-70
2023/02/11 03:34:25;;;;;;;77.20;40.87;;;;;;;5.48;100.00;101825.09;5063586;28;20457;-72
2023/02/11 03:36:55;;;;;;;67.70;39.60;;;;;;;5.47;100.00;101824.25;5079074;28;20539;-73
2023/02/11 03:39:27;;;;;;;73.17;39.53;;;;;;;5.45;100.00;101819.91;5095105;28;21092;-72
2023/02/11 03:41:56;;;;;;;63.83;38.60;;;;;;;5.34;100.00;101811.59;5103091;28;20494;-73
2023/02/11 03:44:25;;;;;;;64.73;39.53;;;;;;;5.34;100.00;101812.44;5063998;28;20469;-72
2023/02/11 03:46:52;;;;;;;70.07;38.43;;;;;;;5.38;100.00;101811.41;5072067;28;20490;-73
2023/02/11 03:49:22;;;;;;;71.57;39.90;;;;;;;5.38;100.00;101802.56;5084041;28;20447;-71
2023/02/11 03:51:51;;;;;;;74.43;39.60;;;;;;;5.47;100.00;101800.38;5083133;28;20988;-71
2023/02/11 03:54:20;;;;;;;74.63;39.53;;;;;;;5.38;100.00;101805.22;5083350;28;20531;-72
2023/02/11 03:56:51;;;;;;;72.17;39.87;;;;;;;5.48;100.00;101809.19;5083492;28;20525;-72
2023/02/11 03:59:18;;;;;;;65.97;39.17;;;;;;;5.37;100.00;101814.97;5062975;28;20425;-72
2023/02/11 04:01:45;;;;;;;77.60;40.50;;;;;;;5.33;100.00;101809.88;5072751;28;20479;-71
2023/02/11 04:04:11;;;;;;;73.57;40.67;;;;;;;5.38;100.00;101822.03;5082824;28;20964;-70
2023/02/11 04:06:40;;;;;;;68.27;39.70;;;;;;;5.40;100.00;101812.19;5081620;28;20513;-70
2023/02/11 04:09:07;;;;;;;65.53;39.00;;;;;;;5.45;100.00;101810.19;5097356;28;20475;-70
2023/02/11 04:11:34;;;;;;;76.10;39.80;;;;;;;5.57;100.00;101802.59;5095787;28;21018;-70
2023/02/11 04:14:00;;;;;;;70.73;38.60;;;;;;;5.49;100.00;101816.22;5082853;28;20467;-70
2023/02/11 04:16:28;;;;;;;78.30;42.27;;;;;;;5.51;100.00;101814.34;5100680;28;20510;-70
2023/02/11 04:18:55;;;;;;;60.93;36.80;;;;;;;5.47;100.00;101820.75;5096220;28;20448;-70
2023/02/11 04:21:22;;;;;;;68.37;40.53;;;;;;;5.66;100.00;101818.13;5083603;28;20476;-70
2023/02/11 04:23:50;;;;;;;76.17;39.97;;;;;;;5.62;100.00;101813.88;5102596;28;20443;-70
2023/02/11 04:26:16;;;;;;;69.33;40.50;;;;;;;5.61;100.00;101818.31;5088294;28;20505;-69
2023/02/11 04:28:43;;;;;;;69.43;38.20;;;;;;;5.56;100.00;101806.19;5093358;28;20883;-70
2023/02/11 04:31:10;;;;;;;71.17;37.80;;;;;;;5.77;100.00;101804.34;5092863;28;20504;-70
2023/02/11 04:33:37;;;;;;;69.10;36.93;;;;;;;5.65;100.00;101798.66;5090621;28;20518;-69
2023/02/11 04:36:04;;;;;;;70.33;37.70;;;;;;;5.61;100.00;101802.41;5089148;28;20491;-69
2023/02/11 04:38:30;;;;;;;66.03;40.60;;;;;;;5.73;100.00;101800.97;5083084;28;20435;-70
2023/02/11 04:40:59;;;;;;;66.43;38.23;;;;;;;5.70;100.00;101809.06;5087013;28;20523;-70
2023/02/11 04:43:26;;;;;;;62.37;36.60;;;;;;;5.74;100.00;101810.63;5084448;28;20435;-70
2023/02/11 04:45:52;;;;;;;64.23;36.10;;;;;;;5.65;100.00;101798.66;5102199;28;20513;-69
2023/02/11 04:48:19;;;;;;;65.67;34.80;;;;;;;5.74;100.00;101804.47;5102367;28;20449;-69
2023/02/11 04:50:45;;;;;;;62.37;36.30;;;;;;;5.75;100.00;101811.53;5101388;28;20531;-69
2023/02/11 04:53:12;;;;;;;64.33;37.53;;;;;;;5.81;100.00;101812.06;5102628;28;20999;-69
2023/02/11 04:55:39;;;;;;;61.00;35.80;;;;;;;5.68;100.00;101810.06;5087191;28;20547;-69
2023/02/11 04:58:07;;;;;;;60.60;36.63;;;;;;;5.79;100.00;101810.44;5090360;28;20893;-70
2023/02/11 05:00:33;;;;;;;60.13;34.67;;;;;;;5.73;100.00;101814.25;5100233;28;20499;-69
2023/02/11 05:03:00;;;;;;;67.43;39.27;;;;;;;5.79;100.00;101818.41;5082292;28;20538;-69
2023/02/11 05:05:27;;;;;;;64.20;33.13;;;;;;;5.67;100.00;101825.13;5094543;28;20474;-69
2023/02/11 05:07:53;;;;;;;74.63;35.77;;;;;;;5.75;100.00;101832.75;5096966;28;20518;-70
2023/02/11 05:10:20;;;;;;;69.33;39.40;;;;;;;5.91;100.00;101828.44;5081259;28;20448;-70
2023/02/11 05:12:48;;;;;;;66.10;36.67;;;;;;;5.77;100.00;101825.56;5100597;28;20470;-70
2023/02/11 05:15:16;;;;;;;62.87;34.83;;;;;;;5.73;100.00;101818.66;5101081;28;20446;-70
2023/02/11 05:17:42;;;;;;;62.17;35.53;;;;;;;5.71;100.00;101820.53;5083604;28;20444;-70
2023/02/11 05:20:10;;;;;;;65.90;38.50;;;;;;;5.71;100.00;101816.13;5101176;28;20441;-69
2023/02/11 05:22:37;;;;;;;69.10;38.03;;;;;;;5.77;100.00;101813.16;5101557;28;20475;-69
2023/02/11 05:25:04;;;;;;;57.00;34.20;;;;;;;5.75;100.00;101811.53;5102060;28;20484;-70
2023/02/11 05:27:30;;;;;;;61.77;35.93;;;;;;;5.92;100.00;101821.34;5100472;28;20497;-70
2023/02/11 05:29:57;;;;;;;63.80;35.83;;;;;;;5.74;100.00;101817.75;5101197;28;20435;-70
2023/02/11 05:32:25;;;;;;;64.87;35.07;;;;;;;5.88;100.00;101815.31;5101721;28;20542;-70
2023/02/11 05:34:52;;;;;;;59.77;36.17;;;;;;;5.94;100.00;101807.06;5089710;28;20542;-70
2023/02/11 05:37:18;;;;;;;65.10;35.87;;;;;;;5.84;100.00;101805.78;5086137;28;21143;-70
2023/02/11 05:39:45;;;;;;;55.30;33.93;;;;;;;5.88;100.00;101793.22;5081860;28;20533;-70
2023/02/11 05:42:12;;;;;;;68.17;36.37;;;;;;;5.96;100.00;101804.38;5095290;28;20576;-71
2023/02/11 05:44:38;;;;;;;62.37;37.60;;;;;;;5.86;100.00;101809.22;5091585;28;20497;-70
2023/02/11 05:47:07;;;;;;;64.70;34.70;;;;;;;5.81;100.00;101809.41;5095700;28;20566;-70
2023/02/11 05:49:35;;;;;;;62.27;35.03;;;;;;;5.94;100.00;101806.22;5102146;28;20513;-70
2023/02/11 05:52:02;;;;;;;56.90;34.77;;;;;;;5.94;100.00;101812.38;5092449;28;20505;-70
2023/02/11 05:54:28;;;;;;;67.57;34.97;;;;;;;5.96;100.00;101809.69;5089617;28;20460;-70
2023/02/11 05:56:55;;;;;;;57.87;37.00;;;;;;;5.84;100.00;101809.28;5097356;28;20503;-69
2023/02/11 05:59:22;;;;;;;63.97;36.97;;;;;;;5.85;100.00;101803.06;5087734;28;20531;-70
2023/02/11 06:01:48;;;;;;;61.17;34.33;;;;;;;5.83;100.00;101806.69;5085461;28;20513;-70
2023/02/11 06:04:15;;;;;;;56.67;33.10;;;;;;;5.84;100.00;101800.47;5101406;28;20465;-70
2023/02/11 06:06:43;;;;;;;63.60;35.20;;;;;;;5.82;100.00;101807.66;5099819;28;20548;-70
2023/02/11 06:09:10;;;;;;;60.17;33.90;;;;;;;5.81;100.00;101796.16;5087555;28;20439;-70
2023/02/11 06:11:37;;;;;;;56.90;34.90;;;;;;;5.93;100.00;101800.03;5089473;28;20463;-69
2023/02/11 06:14:03;;;;;;;57.17;33.83;;;;;;;5.75;100.00;101791.16;5081660;28;20466;-68
2023/02/11 06:16:30;;;;;;;61.33;33.17;;;;;;;5.93;100.00;101793.88;5080384;28;20475;-69
2023/02/11 06:18:57;;;;;;;60.17;36.20;;;;;;;5.85;100.00;101787.13;5081545;28;20452;-69
2023/02/11 06:21:24;;;;;;;64.97;34.33;;;;;;;5.88;100.00;101796.72;5092468;28;20501;-69
2023/02/11 06:23:52;;;;;;;69.93;34.40;;;;;;;5.93;100.00;101793.88;5093430;28;20446;-69
2023/02/11 06:26:20;;;;;;;51.40;32.40;;;;;;;5.95;100.00;101790.19;5080324;28;20537;-69
2023/02/11 06:28:47;;;;;;;55.00;33.40;;;;;;;5.89;100.00;101797.63;5081442;28;20463;-70
2023/02/11 06:31:16;;;;;;;61.67;32.43;;;;;;;5.96;100.00;101810.53;5081012;28;20514;-70
2023/02/11 06:33:43;;;;;;;58.13;35.60;;;;;;;5.93;100.00;101815.09;5095309;28;20491;-70
2023/02/11 06:36:14;;;;;;;54.93;33.60;;;;;;;5.92;100.00;101822.22;5087673;28;20505;-71
2023/02/11 06:38:41;;;;;;;64.50;32.83;;;;;;;5.87;100.00;101812.72;5101537;28;20463;-71
2023/02/11 06:41:10;;;;;;;56.87;34.87;;;;;;;5.89;100.00;101808.22;5080383;28;20551;-71
2023/02/11 06:43:38;;;;;;;64.83;35.53;;;;;;;5.98;100.00;101810.47;5081148;28;20443;-69
2023/02/11 06:46:05;;;;;;;76.43;35.70;;;;;;;6.00;100.00;101821.88;5080520;28;20510;-68
2023/02/11 06:48:31;;;;;;;59.50;31.13;;;;;;;5.96;100.00;101818.50;5081398;28;20470;-70
2023/02/11 06:51:01;;;;;;;57.23;32.90;;;;;;;5.89;100.00;101834.78;5085464;28;22228;-77
2023/02/11 06:53:28;;;;;;;51.80;32.90;;;;;;;5.86;100.00;101830.44;5088727;28;20471;-72
2023/02/11 06:55:54;;;;;;;62.93;33.20;;;;;;;5.78;100.00;101844.09;5087287;28;20505;-71
2023/02/11 06:58:22;;;;;;;51.60;31.97;;;;;;;5.88;100.00;101841.00;5100470;28;20478;-71
2023/02/11 07:00:50;;;;;;;58.27;31.97;;;;;;;5.98;100.00;101831.72;5086123;28;20509;-71
2023/02/11 07:03:17;;;;;;;56.97;35.57;;;;;;;5.96;100.00;101841.53;5084632;28;20478;-71
2023/02/11 07:05:43;;;;;;;63.67;33.80;;;;;;;5.98;100.00;101840.53;5082463;28;20471;-71
2023/02/11 07:08:10;;;;;;;61.20;31.83;;;;;;;6.00;100.00;101841.31;5084677;28;20451;-71
2023/02/11 07:10:37;;;;;;;54.73;33.27;;;;;;;6.03;100.00;101832.34;5083789;28;20499;-72
2023/02/11 07:13:03;;;;;;;55.50;33.33;;;;;;;5.87;100.00;101832.19;5084291;28;20435;-71
2023/02/11 07:15:31;;;;;;;58.73;34.13;;;;;;;5.97;100.00;101838.81;5084330;28;20498;-72
2023/02/11 07:17:58;;;;;;;52.80;32.70;;;;;;;5.76;100.00;101839.75;5084087;28;20503;-71
2023/02/11 07:20:25;;;;;;;53.60;33.87;;;;;;;5.87;100.00;101840.16;5084435;28;20449;-70
2023/02/11 07:22:52;;;;;;;64.83;32.70;;;;;;;5.88;100.00;101833.88;5085096;28;20533;-73
2023/02/11 07:25:19;;;;;;;64.63;36.10;;;;;;;5.98;100.00;101843.19;5084728;28;20446;-72
2023/02/11 07:27:45;;;;;;;63.63;35.00;;;;;;;6.05;100.00;101846.41;5086777;28;20805;-71
2023/02/11 07:30:13;;;;;;;57.23;32.10;;;;;;;5.77;100.00;101846.81;5083081;28;20436;-72
2023/02/11 07:32:41;;;;;;;60.30;34.90;;;;;;;5.81;100.00;101853.69;5083843;28;20447;-72
2023/02/11 07:35:08;;;;;;;61.43;35.20;;;;;;;6.06;100.00;101864.06;5082342;28;20444;-72
2023/02/11 07:37:35;;;;;;;59.20;34.47;;;;;;;5.81;100.00;101848.38;5083711;28;20548;-72
2023/02/11 07:40:02;;;;;;;64.70;33.57;;;;;;;5.76;100.00;101850.38;5084926;28;20479;-71
2023/02/11 07:42:28;;;;;;;57.70;33.63;;;;;;;5.77;100.00;101862.72;5082779;28;20490;-72
2023/02/11 07:44:55;;;;;;;60.80;36.00;;;;;;;6.01;100.00;101861.63;5080276;28;20483;-72
2023/02/11 07:47:21;;;;;;;63.63;35.23;;;;;;;5.98;100.00;101872.38;5084348;28;20487;-71
2023/02/11 07:49:49;;;;;;;67.83;37.13;;;;;;;6.02;100.00;101858.06;5086722;28;20862;-70
2023/02/11 07:52:16;;;;;;;64.90;32.70;;;;;;;5.94;100.00;101852.19;5082147;28;20490;-70
2023/02/11 07:54:43;;;;;;;57.33;35.63;;;;;;;6.08;100.00;101856.03;5082294;28;20480;-70
2023/02/11 07:57:10;;;;;;;59.93;32.27;;;;;;;6.04;100.00;101852.66;5084295;28;20494;-70
2023/02/11 07:59:36;;;;;;;57.40;34.00;;;;;;;5.93;100.00;101839.84;5084165;28;20450;-70
2023/02/11 08:02:03;;;;;;;62.37;36.50;;;;;;;6.09;100.00;101849.78;5082068;28;20476;-69
2023/02/11 08:04:30;;;;;;;62.80;36.20;;;;;;;6.07;100.00;101851.66;5081221;28;20974;-69
2023/02/11 08:06:58;;;;;;;71.13;34.70;;;;;;;5.82;100.00;101860.72;5088227;28;20522;-69
2023/02/11 08:09:24;;;;;;;67.80;35.93;;;;;;;5.94;100.00;101860.16;5094894;28;20487;-69
2023/02/11 08:11:51;;;;;;;69.90;36.70;;;;;;;5.90;100.00;101866.53;5080754;28;20475;-69
2023/02/11 08:14:19;;;;;;;72.17;38.00;;;;;;;5.89;100.00;101869.28;5081131;28;20482;-69
2023/02/11 08:16:46;;;;;;;72.10;36.67;;;;;;;5.78;100.00;101864.44;5079815;28;20840;-69
2023/02/11 08:19:14;;;;;;;69.33;35.13;;;;;;;6.00;100.00;101864.34;5082018;28;21008;-69
2023/02/11 08:21:41;;;;;;;79.13;36.60;;;;;;;5.83;100.00;101850.06;5077707;28;20471;-69
2023/02/11 08:24:09;;;;;;;73.00;35.73;;;;;;;6.05;100.00;101865.00;5083278;28;20537;-69
2023/02/11 08:26:36;;;;;;;80.20;37.33;;;;;;;5.90;100.00;101871.84;5081554;28;20470;-69
2023/02/11 08:29:07;;;;;;;75.33;37.47;;;;;;;6.08;100.00;101879.94;5082121;28;21073;-69
2023/02/11 08:31:36;;;;;;;65.43;37.10;;;;;;;6.20;100.00;101871.41;5092982;28;20476;-69
2023/02/11 08:34:03;;;;;;;73.33;35.87;;;;;;;6.12;100.00;101879.72;5099329;28;20450;-69
2023/02/11 08:36:31;;;;;;;61.47;35.27;;;;;;;6.10;100.00;101873.63;5088323;28;20479;-69
2023/02/11 08:39:01;;;;;;;68.53;33.90;;;;;;;6.05;100.00;101891.56;5096030;28;21000;-69
2023/02/11 08:41:29;;;;;;;59.90;32.33;;;;;;;6.02;100.00;101895.22;5092574;28;20482;-68
2023/02/11 08:43:56;;;;;;;81.77;36.60;;;;;;;5.94;100.00;101897.31;5083170;28;20452;-68
2023/02/11 08:46:22;;;;;;;70.80;36.03;;;;;;;5.75;100.00;101888.47;5082752;28;20558;-69
2023/02/11 08:48:49;;;;;;;69.63;34.43;;;;;;;5.91;100.00;101888.66;5082793;28;20437;-69
2023/02/11 08:51:18;;;;;;;71.63;34.07;;;;;;;5.92;100.00;101887.69;5080585;28;20468;-69
2023/02/11 08:53:44;;;;;;;78.67;34.43;;;;;;;5.77;100.00;101887.47;5081858;28;20443;-68
2023/02/11 08:56:12;;;;;;;68.67;33.57;;;;;;;5.98;100.00;101888.31;5083709;28;20482;-69
2023/02/11 08:58:41;;;;;;;71.27;33.20;;;;;;;6.11;100.00;101898.38;5087486;28;20452;-69
2023/02/11 09:01:11;;;;;;;73.60;36.80;;;;;;;6.03;100.00;101883.66;5085012;28;21022;-70
2023/02/11 09:03:38;;;;;;;72.30;36.47;;;;;;;6.05;100.00;101896.84;5088455;28;20455;-69
2023/02/11 09:06:05;;;;;;;77.97;34.43;;;;;;;6.16;100.00;101899.91;5078756;28;20538;-70
2023/02/11 09:08:34;;;;;;;83.07;40.07;;;;;;;6.34;100.00;101894.66;5082273;28;20682;-70
2023/02/11 09:11:01;;;;;;;78.30;35.90;;;;;;;6.18;100.00;101903.34;5082300;28;20494;-68
2023/02/11 09:13:28;;;;;;;83.43;36.87;;;;;;;6.16;100.00;101915.84;5082902;28;20487;-67
2023/02/11 09:15:56;;;;;;;73.47;35.67;;;;;;;6.06;100.00;101906.56;5079436;28;20479;-67
2023/02/11 09:18:23;;;;;;;74.20;36.57;;;;;;;6.34;100.00;101918.56;5084048;28;20450;-70
2023/02/11 09:20:49;;;;;;;83.40;37.67;;;;;;;6.32;100.00;101923.94;5081923;28;20919;-67
2023/02/11 09:23:17;;;;;;;79.77;38.40;;;;;;;6.33;100.00;101925.66;5081869;28;20934;-67
2023/02/11 09:25:43;;;;;;;81.00;37.80;;;;;;;6.20;100.00;101922.72;5079312;28;20467;-68
2023/02/11 09:28:10;;;;;;;78.50;36.53;;;;;;;6.33;100.00;101930.97;5080354;28;20471;-68
2023/02/11 09:30:37;;;;;;;77.70;38.10;;;;;;;6.37;100.00;101931.66;5078140;28;20462;-67
2023/02/11 09:33:05;;;;;;;78.47;37.23;;;;;;;6.15;100.00;101934.47;5081156;28;20538;-67
2023/02/11 09:35:33;;;;;;;69.13;36.20;;;;;;;6.16;100.00;101938.84;5079235;28;20502;-68
2023/02/11 09:37:59;;;;;;;79.03;37.20;;;;;;;6.11;100.00;101941.72;5082813;28;20488;-67
2023/02/11 09:40:26;;;;;;;79.87;36.90;;;;;;;6.10;100.00;101949.75;5082415;28;20452;-68
2023/02/11 09:42:57;;;;;;;66.93;36.30;;;;;;;6.37;100.00;101960.88;5090880;28;21040;-69
2023/02/11 09:45:26;;;;;;;76.40;37.97;;;;;;;6.15;100.00;101958.38;5083394;28;20457;-69
2023/02/11 09:47:56;;;;;;;69.83;36.80;;;;;;;6.22;100.00;101954.50;5097417;28;20493;-69
2023/02/11 09:50:30;;;;;;;90.27;39.60;;;;;;;6.33;100.00;101961.97;5080081;28;20483;-69
2023/02/11 09:52:59;;;;;;;69.80;36.53;;;;;;;6.30;100.00;101968.31;5080543;28;20542;-69
2023/02/11 09:55:28;;;;;;;75.07;37.30;;;;;;;6.29;100.00;101963.06;5092051;28;21757;-69
2023/02/11 09:57:55;;;;;;;79.80;37.10;;;;;;;6.32;100.00;101966.44;5093560;28;20495;-69
2023/02/11 10:00:24;;;;;;;87.90;37.70;;;;;;;6.52;100.00;101961.97;5080333;28;20523;-69
2023/02/11 10:03:01;;;;;;;72.07;35.77;;;;;;;6.30;100.00;101968.31;5081317;28;21069;-69
2023/02/11 10:05:45;;;;;;;81.47;35.93;;;;;;;6.46;100.00;101975.53;5092233;28;20463;-69
2023/02/11 10:08:15;;;;;;;84.93;34.67;;;;;;;6.18;100.00;101975.03;5100128;28;20470;-69
2023/02/11 10:10:50;;;;;;;84.23;39.97;;;;;;;6.41;100.00;101976.63;5079887;28;20471;-69
2023/02/11 10:13:35;;;;;;;79.33;37.53;;;;;;;6.32;100.00;101973.53;5080344;28;20481;-68
2023/02/11 10:16:08;;;;;;;86.93;37.10;;;;;;;6.43;100.00;101976.56;5079468;28;21007;-68
2023/02/11 10:19:06;;;;;;;79.10;35.30;;;;;;;6.45;100.00;101973.84;5082530;28;20495;-69
2023/02/11 10:21:40;;;;;;;65.07;34.27;;;;;;;6.43;100.00;101979.22;5093729;28;20485;-68
2023/02/11 10:24:11;;;;;;;78.83;37.10;;;;;;;6.41;100.00;101987.25;5083158;28;20480;-68
2023/02/11 10:26:39;;;;;;;72.53;35.37;;;;;;;6.32;100.00;101990.34;5083785;28;20472;-68
2023/02/11 10:29:31;;;;;;;66.70;34.50;;;;;;;6.47;100.00;101990.56;5083018;28;20463;-68
2023/02/11 10:31:59;;;;;;;77.73;36.50;;;;;;;6.44;100.00;101991.59;5084659;28;20500;-68
2023/02/11 10:34:26;;;;;;;76.87;33.40;;;;;;;6.36;100.00;102001.69;5085207;28;20443;-68
2023/02/11 10:36:54;;;;;;;76.53;34.40;;;;;;;6.44;100.00;101994.25;5080701;28;20480;-67
2023/02/11 10:39:22;;;;;;;64.40;33.40;;;;;;;6.43;100.00;101996.97;5091688;28;20442;-68
2023/02/11 10:41:52;;;;;;;80.43;35.83;;;;;;;6.42;100.00;101993.41;5087029;28;20484;-68
2023/02/11 10:44:25;;;;;;;64.73;35.07;;;;;;;6.59;100.00;102001.47;5081421;28;20941;-68
2023/02/11 10:46:53;;;;;;;62.70;33.13;;;;;;;6.44;100.00;101985.38;5088436;28;20946;-68
2023/02/11 10:49:34;;;;;;;63.63;31.80;;;;;;;6.57;100.00;102002.50;5083650;28;20775;-69
2023/02/11 10:52:15;;;;;;;64.27;33.30;;;;;;;6.57;100.00;101998.03;5082421;28;20486;-67
2023/02/11 10:54:42;;;;;;;72.83;33.13;;;;;;;6.50;100.00;102006.38;5082478;28;20506;-67
2023/02/11 10:57:18;;;;;;;75.67;34.70;;;;;;;6.62;100.00;101999.63;5082948;28;20495;-68
2023/02/11 10:59:48;;;;;;;73.17;35.00;;;;;;;6.69;100.00;102001.06;5085685;28;20510;-69
2023/02/11 11:02:22;;;;;;;74.10;35.17;;;;;;;6.77;100.00;101993.56;5093440;28;20475;-69
2023/02/11 11:04:49;;;;;;;73.93;36.00;;;;;;;6.69;100.00;101995.75;5103963;28;20453;-69
2023/02/11 11:07:19;;;;;;;61.23;30.57;;;;;;;6.71;100.00;101989.41;5085311;28;20522;-69
2023/02/11 11:09:51;;;;;;;60.97;33.00;;;;;;;6.84;100.00;101995.03;5084632;28;20436;-69
2023/02/11 11:12:36;;;;;;;74.37;37.20;;;;;;;6.95;100.00;101994.50;5084532;28;20577;-68
2023/02/11 11:15:17;;;;;;;57.43;32.33;;;;;;;6.98;100.00;101989.88;5082338;28;20918;-68
2023/02/11 11:17:44;;;;;;;67.93;32.23;;;;;;;6.91;100.00;101985.81;5083746;28;20499;-67
2023/02/11 11:20:26;;;;;;;57.40;30.77;;;;;;;6.90;100.00;101978.75;5082577;28;20433;-68
2023/02/11 11:23:08;;;;;;;58.07;31.03;;;;;;;7.00;100.00;101979.19;5088612;28;20489;-67